sensor_id;sensor_type;location;lat;lon;timestamp;pressure;altitude;pressure_sealevel;temperature;humidity
77702;BME280;66868;42.708;23.404;2023-02-02T00:01:49;95240.75;;;3.81;64.46
77702;BME280;66868;42.708;23.404;2023-02-02T00:04:22;95236.72;;;3.77;64.48
77702;BME280;66868;42.708;23.404;2023-02-02T00:06:48;95246.88;;;3.73;64.91
77702;BME280;66868;42.708;23.404;2023-02-02T00:09:19;95238.22;;;3.55;65.29
77702;BME280;66868;42.708;23.404;2023-02-02T00:11:46;95234.78;;;3.59;65.72
77702;BME280;66868;42.708;23.404;2023-02-02T00:14:12;95238.22;;;3.55;65.89
77702;BME280;66868;42.708;23.404;2023-02-02T00:16:52;95246.22;;;3.66;65.78
77702;BME280;66868;42.708;23.404;2023-02-02T00:19:20;95243.13;;;3.58;66.13
77702;BME280;66868;42.708;23.404;2023-02-02T00:21:46;95211.53;;;3.26;67.34
77702;BME280;66868;42.708;23.404;2023-02-02T00:24:14;95243.56;;;3.43;67.06
77702;BME280;66868;42.708;23.404;2023-02-02T00:26:41;95246.16;;;3.40;67.49
77702;BME280;66868;42.708;23.404;2023-02-02T00:29:13;95238.28;;;3.24;68.22
77702;BME280;66868;42.708;23.404;2023-02-02T00:31:39;95253.13;;;3.30;69.02
77702;BME280;66868;42.708;23.404;2023-02-02T00:34:04;95244.34;;;3.16;69.41
77702;BME280;66868;42.708;23.404;2023-02-02T00:36:30;95186.31;;;2.75;70.18
77702;BME280;66868;42.708;23.404;2023-02-02T00:38:55;95262.06;;;3.08;70.96
77702;BME280;66868;42.708;23.404;2023-02-02T00:41:20;95257.31;;;2.99;71.56
77702;BME280;66868;42.708;23.404;2023-02-02T00:43:46;95257.59;;;2.88;71.59
77702;BME280;66868;42.708;23.404;2023-02-02T00:46:31;95265.78;;;2.95;71.73
77702;BME280;66868;42.708;23.404;2023-02-02T00:48:56;95254.81;;;2.99;71.65
77702;BME280;66868;42.708;23.404;2023-02-02T00:51:22;95252.22;;;3.02;71.43
77702;BME280;66868;42.708;23.404;2023-02-02T00:53:47;95255.31;;;3.11;70.70
77702;BME280;66868;42.708;23.404;2023-02-02T00:56:13;95253.91;;;3.01;71.38
77702;BME280;66868;42.708;23.404;2023-02-02T00:58:38;95222.34;;;2.97;70.87
77702;BME280;66868;42.708;23.404;2023-02-02T01:01:03;95243.97;;;3.00;71.28
77702;BME280;66868;42.708;23.404;2023-02-02T01:03:29;95244.44;;;3.13;70.96
77702;BME280;66868;42.708;23.404;2023-02-02T01:05:54;95236.50;;;2.98;71.76
77702;BME280;66868;42.708;23.404;2023-02-02T01:08:19;95235.72;;;2.96;72.12
77702;BME280;66868;42.708;23.404;2023-02-02T01:10:45;95243.06;;;3.02;72.39
77702;BME280;66868;42.708;23.404;2023-02-02T01:13:10;95238.16;;;2.99;72.71
77702;BME280;66868;42.708;23.404;2023-02-02T01:15:36;95234.66;;;3.05;72.73
77702;BME280;66868;42.708;23.404;2023-02-02T01:18:01;95238.31;;;2.93;73.91
77702;BME280;66868;42.708;23.404;2023-02-02T01:20:26;95232.00;;;2.80;74.97
77702;BME280;66868;42.708;23.404;2023-02-02T01:22:52;95233.53;;;2.86;75.37
77702;BME280;66868;42.708;23.404;2023-02-02T01:25:17;95235.25;;;2.82;76.14
77702;BME280;66868;42.708;23.404;2023-02-02T01:27:43;95217.09;;;2.77;76.18
77702;BME280;66868;42.708;23.404;2023-02-02T01:30:09;95216.28;;;2.77;76.61
77702;BME280;66868;42.708;23.404;2023-02-02T01:32:34;95200.31;;;2.50;78.08
77702;BME280;66868;42.708;23.404;2023-02-02T01:34:59;95211.25;;;2.46;79.41
77702;BME280;66868;42.708;23.404;2023-02-02T01:37:25;95154.03;;;2.04;79.85
77702;BME280;66868;42.708;23.404;2023-02-02T01:39:50;95204.50;;;2.49;79.16
77702;BME280;66868;42.708;23.404;2023-02-02T01:42:20;95196.66;;;2.31;80.00
77702;BME280;66868;42.708;23.404;2023-02-02T01:47:41;95209.78;;;2.39;81.01
77702;BME280;66868;42.708;23.404;2023-02-02T01:50:09;95198.28;;;2.32;81.48
77702;BME280;66868;42.708;23.404;2023-02-02T01:52:36;95185.03;;;2.30;81.50
77702;BME280;66868;42.708;23.404;2023-02-02T01:55:06;95134.19;;;2.00;81.55
77702;BME280;66868;42.708;23.404;2023-02-02T01:57:41;95184.69;;;2.43;81.54
77702;BME280;66868;42.708;23.404;2023-02-02T02:00:10;95169.41;;;2.54;80.33
77702;BME280;66868;42.708;23.404;2023-02-02T02:02:37;95164.91;;;2.66;80.18
77702;BME280;66868;42.708;23.404;2023-02-02T02:05:04;95176.28;;;2.77;79.28
77702;BME280;66868;42.708;23.404;2023-02-02T02:07:30;95175.78;;;2.64;79.61
77702;BME280;66868;42.708;23.404;2023-02-02T02:09:56;95186.16;;;2.50;80.07
77702;BME280;66868;42.708;23.404;2023-02-02T02:12:21;95187.91;;;2.47;80.51
77702;BME280;66868;42.708;23.404;2023-02-02T02:14:48;95182.91;;;2.47;80.49
77702;BME280;66868;42.708;23.404;2023-02-02T02:17:42;95193.59;;;2.52;80.29
77702;BME280;66868;42.708;23.404;2023-02-02T02:29:46;95192.94;;;1.79;83.80
77702;BME280;66868;42.708;23.404;2023-02-02T02:32:16;95194.84;;;1.68;84.24
77702;BME280;66868;42.708;23.404;2023-02-02T02:37:36;95187.16;;;1.42;84.74
77702;BME280;66868;42.708;23.404;2023-02-02T02:42:38;95191.63;;;1.26;85.89
77702;BME280;66868;42.708;23.404;2023-02-02T02:45:06;95184.44;;;1.12;86.38
77702;BME280;66868;42.708;23.404;2023-02-02T02:47:33;95193.56;;;1.13;86.32
77702;BME280;66868;42.708;23.404;2023-02-02T02:49:59;95194.38;;;1.15;86.13
77702;BME280;66868;42.708;23.404;2023-02-02T02:52:24;95197.00;;;1.08;86.40
77702;BME280;66868;42.708;23.404;2023-02-02T02:54:54;95193.56;;;1.13;85.86
77702;BME280;66868;42.708;23.404;2023-02-02T02:57:30;95191.88;;;1.15;85.46
77702;BME280;66868;42.708;23.404;2023-02-02T03:03:15;95196.91;;;1.12;86.37
77702;BME280;66868;42.708;23.404;2023-02-02T03:05:55;95187.78;;;1.11;85.95
77702;BME280;66868;42.708;23.404;2023-02-02T03:08:33;95192.81;;;1.10;85.76
77702;BME280;66868;42.708;23.404;2023-02-02T03:11:01;95176.59;;;0.92;85.90
77702;BME280;66868;42.708;23.404;2023-02-02T03:13:30;95147.94;;;0.71;86.66
77702;BME280;66868;42.708;23.404;2023-02-02T03:15:55;95195.72;;;0.90;86.99
77702;BME280;66868;42.708;23.404;2023-02-02T03:18:23;95171.09;;;0.75;86.68
77702;BME280;66868;42.708;23.404;2023-02-02T03:20:49;95169.44;;;0.75;86.68
77702;BME280;66868;42.708;23.404;2023-02-02T03:23:15;95199.84;;;0.91;87.07
77702;BME280;66868;42.708;23.404;2023-02-02T03:25:40;95188.13;;;0.96;86.27
77702;BME280;66868;42.708;23.404;2023-02-02T03:28:06;95196.34;;;1.01;86.74
77702;BME280;66868;42.708;23.404;2023-02-02T03:30:32;95199.59;;;1.03;87.15
77702;BME280;66868;42.708;23.404;2023-02-02T03:32:58;95196.97;;;1.09;87.28
77702;BME280;66868;42.708;23.404;2023-02-02T03:35:24;95200.22;;;1.13;87.26
77702;BME280;66868;42.708;23.404;2023-02-02T03:37:50;95189.38;;;1.15;87.06
77702;BME280;66868;42.708;23.404;2023-02-02T03:40:16;95202.53;;;1.20;85.97
77702;BME280;66868;42.708;23.404;2023-02-02T03:42:42;95195.75;;;1.28;85.91
77702;BME280;66868;42.708;23.404;2023-02-02T03:45:09;95172.81;;;1.13;86.18
77702;BME280;66868;42.708;23.404;2023-02-02T03:47:34;95199.81;;;1.32;86.10
77702;BME280;66868;42.708;23.404;2023-02-02T03:49:59;95187.47;;;1.26;85.65
77702;BME280;66868;42.708;23.404;2023-02-02T03:52:25;95191.53;;;1.30;85.04
77702;BME280;66868;42.708;23.404;2023-02-02T03:54:50;95198.88;;;1.37;84.87
77702;BME280;66868;42.708;23.404;2023-02-02T03:57:16;95206.50;;;1.30;84.53
77702;BME280;66868;42.708;23.404;2023-02-02T03:59:41;95209.75;;;1.34;83.96
77702;BME280;66868;42.708;23.404;2023-02-02T04:02:07;95209.00;;;1.30;84.74
77702;BME280;66868;42.708;23.404;2023-02-02T04:04:32;95200.88;;;1.21;84.82
77702;BME280;66868;42.708;23.404;2023-02-02T04:06:58;95199.41;;;1.12;84.83
77702;BME280;66868;42.708;23.404;2023-02-02T04:09:24;95198.66;;;1.09;84.91
77702;BME280;66868;42.708;23.404;2023-02-02T04:11:49;95203.91;;;0.97;85.31
77702;BME280;66868;42.708;23.404;2023-02-02T04:14:15;95184.34;;;0.78;85.91
77702;BME280;66868;42.708;23.404;2023-02-02T04:16:40;95205.13;;;0.76;85.87
77702;BME280;66868;42.708;23.404;2023-02-02T04:19:05;95198.81;;;0.60;86.51
77702;BME280;66868;42.708;23.404;2023-02-02T04:21:31;95205.41;;;0.61;87.11
77702;BME280;66868;42.708;23.404;2023-02-02T04:23:56;95202.41;;;0.45;87.15
77702;BME280;66868;42.708;23.404;2023-02-02T04:26:22;95205.66;;;0.49;87.63
77702;BME280;66868;42.708;23.404;2023-02-02T04:28:51;95205.06;;;0.34;88.23
77702;BME280;66868;42.708;23.404;2023-02-02T04:31:17;95197.72;;;0.28;88.34
77702;BME280;66868;42.708;23.404;2023-02-02T04:33:43;95201.09;;;0.24;88.94
77702;BME280;66868;42.708;23.404;2023-02-02T04:36:09;95185.66;;;0.07;89.05
77702;BME280;66868;42.708;23.404;2023-02-02T04:38:35;95190.44;;;0.18;88.86
77702;BME280;66868;42.708;23.404;2023-02-02T04:41:08;95202.00;;;0.22;89.48
77702;BME280;66868;42.708;23.404;2023-02-02T04:43:35;95202.00;;;0.20;88.72
77702;BME280;66868;42.708;23.404;2023-02-02T04:46:01;95207.78;;;0.22;88.91
77702;BME280;66868;42.708;23.404;2023-02-02T04:48:26;95214.38;;;0.23;88.87
77702;BME280;66868;42.708;23.404;2023-02-02T04:51:00;95211.03;;;0.26;88.73
77702;BME280;66868;42.708;23.404;2023-02-02T04:53:26;95208.69;;;0.18;88.57
77702;BME280;66868;42.708;23.404;2023-02-02T04:55:53;95214.38;;;0.23;88.48
77702;BME280;66868;42.708;23.404;2023-02-02T04:58:18;95214.38;;;0.23;88.15
77702;BME280;66868;42.708;23.404;2023-02-02T05:00:44;95202.97;;;0.13;88.51
77702;BME280;66868;42.708;23.404;2023-02-02T05:03:10;95219.44;;;0.20;87.70
77702;BME280;66868;42.708;23.404;2023-02-02T05:05:35;95221.16;;;0.15;88.30
77702;BME280;66868;42.708;23.404;2023-02-02T05:08:01;95219.50;;;0.16;88.21
77702;BME280;66868;42.708;23.404;2023-02-02T05:10:26;95219.53;;;0.14;88.24
77702;BME280;66868;42.708;23.404;2023-02-02T05:12:52;95193.22;;;0.01;88.62
77702;BME280;66868;42.708;23.404;2023-02-02T05:15:18;95201.22;;;0.18;88.01
77702;BME280;66868;42.708;23.404;2023-02-02T05:17:45;95198.56;;;0.27;87.44
77702;BME280;66868;42.708;23.404;2023-02-02T05:20:11;95218.34;;;0.35;87.52
77702;BME280;66868;42.708;23.404;2023-02-02T05:22:37;95212.44;;;0.40;87.07
77702;BME280;66868;42.708;23.404;2023-02-02T05:25:04;95219.06;;;0.41;86.78
77702;BME280;66868;42.708;23.404;2023-02-02T05:27:29;95224.09;;;0.38;86.77
77702;BME280;66868;42.708;23.404;2023-02-02T05:29:55;95222.41;;;0.39;86.60
77702;BME280;66868;42.708;23.404;2023-02-02T05:32:20;95214.34;;;0.26;87.00
77702;BME280;66868;42.708;23.404;2023-02-02T05:34:46;95229.97;;;0.33;86.68
77702;BME280;66868;42.708;23.404;2023-02-02T05:37:11;95226.63;;;0.35;86.46
77702;BME280;66868;42.708;23.404;2023-02-02T05:39:36;95229.03;;;0.41;85.85
77702;BME280;66868;42.708;23.404;2023-02-02T05:42:02;95235.53;;;0.49;85.64
77702;BME280;66868;42.708;23.404;2023-02-02T05:44:27;95213.38;;;0.33;85.52
77702;BME280;66868;42.708;23.404;2023-02-02T05:46:53;95239.69;;;0.48;85.67
77702;BME280;66868;42.708;23.404;2023-02-02T05:49:18;95245.56;;;0.46;85.92
77702;BME280;66868;42.708;23.404;2023-02-02T05:51:46;95231.53;;;0.41;85.63
77702;BME280;66868;42.708;23.404;2023-02-02T05:54:12;95235.59;;;0.44;85.49
77702;BME280;66868;42.708;23.404;2023-02-02T05:56:43;95224.16;;;0.35;85.95
77702;BME280;66868;42.708;23.404;2023-02-02T05:59:08;95239.59;;;0.53;86.10
77702;BME280;66868;42.708;23.404;2023-02-02T06:01:34;95230.72;;;0.39;85.59
77702;BME280;66868;42.708;23.404;2023-02-02T06:03:59;95241.28;;;0.52;85.55
77702;BME280;66868;42.708;23.404;2023-02-02T06:06:25;95239.63;;;0.51;86.01
77702;BME280;66868;42.708;23.404;2023-02-02T06:08:50;95231.38;;;0.49;85.88
77702;BME280;66868;42.708;23.404;2023-02-02T06:11:17;95238.84;;;0.49;86.17
77702;BME280;66868;42.708;23.404;2023-02-02T06:13:42;95176.59;;;0.03;86.42
77702;BME280;66868;42.708;23.404;2023-02-02T06:16:08;95248.94;;;0.41;86.47
77702;BME280;66868;42.708;23.404;2023-02-02T06:18:35;95244.72;;;0.45;86.31
77702;BME280;66868;42.708;23.404;2023-02-02T06:21:01;95247.97;;;0.49;86.62
77702;BME280;66868;42.708;23.404;2023-02-02T06:23:27;95243.06;;;0.46;86.61
77702;BME280;66868;42.708;23.404;2023-02-02T06:25:53;95266.81;;;0.63;86.10
77702;BME280;66868;42.708;23.404;2023-02-02T06:28:18;95261.69;;;0.71;85.89
77702;BME280;66868;42.708;23.404;2023-02-02T06:30:44;95257.53;;;0.70;85.79
77702;BME280;66868;42.708;23.404;2023-02-02T06:33:09;95270.78;;;0.73;85.90
77702;BME280;66868;42.708;23.404;2023-02-02T06:35:35;95258.50;;;0.64;85.75
77702;BME280;66868;42.708;23.404;2023-02-02T06:38:00;95274.00;;;0.78;85.26
77702;BME280;66868;42.708;23.404;2023-02-02T06:40:27;95270.66;;;0.79;85.57
77702;BME280;66868;42.708;23.404;2023-02-02T06:42:57;95292.88;;;0.90;85.79
77702;BME280;66868;42.708;23.404;2023-02-02T06:45:23;95259.94;;;0.76;85.48
77702;BME280;66868;42.708;23.404;2023-02-02T06:47:48;95286.06;;;0.98;85.34
77702;BME280;66868;42.708;23.404;2023-02-02T06:50:14;95255.50;;;0.90;84.70
77702;BME280;66868;42.708;23.404;2023-02-02T06:52:46;95274.94;;;1.16;84.77
77702;BME280;66868;42.708;23.404;2023-02-02T06:55:12;95296.22;;;1.33;83.91
77702;BME280;66868;42.708;23.404;2023-02-02T06:57:37;95285.91;;;1.49;83.97
77702;BME280;66868;42.708;23.404;2023-02-02T07:00:03;95272.59;;;1.50;83.01
77702;BME280;66868;42.708;23.404;2023-02-02T07:02:29;95297.22;;;1.63;82.65
77702;BME280;66868;42.708;23.404;2023-02-02T07:04:54;95297.59;;;1.85;82.36
77702;BME280;66868;42.708;23.404;2023-02-02T07:07:19;95300.09;;;1.85;82.13
77702;BME280;66868;42.708;23.404;2023-02-02T07:09:45;95273.03;;;1.67;82.32
77702;BME280;66868;42.708;23.404;2023-02-02T07:12:10;95304.22;;;1.86;82.21
77702;BME280;66868;42.708;23.404;2023-02-02T07:14:35;95288.59;;;1.78;82.30
77702;BME280;66868;42.708;23.404;2023-02-02T07:17:02;95289.31;;;1.85;82.44
77702;BME280;66868;42.708;23.404;2023-02-02T07:19:27;95285.09;;;1.85;82.63
77702;BME280;66868;42.708;23.404;2023-02-02T07:21:53;95282.59;;;1.87;82.74
77702;BME280;66868;42.708;23.404;2023-02-02T07:24:18;95300.13;;;1.84;83.14
77702;BME280;66868;42.708;23.404;2023-02-02T07:26:43;95299.22;;;1.86;83.22
77702;BME280;66868;42.708;23.404;2023-02-02T07:29:11;95291.19;;;1.75;83.82
77702;BME280;66868;42.708;23.404;2023-02-02T07:31:38;95270.84;;;1.90;83.10
77702;BME280;66868;42.708;23.404;2023-02-02T07:34:04;95281.66;;;1.91;82.21
77702;BME280;66868;42.708;23.404;2023-02-02T07:36:30;95310.44;;;2.05;82.34
77702;BME280;66868;42.708;23.404;2023-02-02T07:38:55;95300.38;;;2.08;81.92
77702;BME280;66868;42.708;23.404;2023-02-02T07:41:26;95261.03;;;1.84;81.80
77702;BME280;66868;42.708;23.404;2023-02-02T07:43:52;95294.50;;;2.12;81.50
77702;BME280;66868;42.708;23.404;2023-02-02T07:46:18;95305.00;;;2.27;81.28
77702;BME280;66868;42.708;23.404;2023-02-02T07:48:44;95244.00;;;2.00;80.46
77702;BME280;66868;42.708;23.404;2023-02-02T07:51:12;95276.09;;;2.16;80.08
77702;BME280;66868;42.708;23.404;2023-02-02T07:53:42;95266.50;;;2.34;79.96
77702;BME280;66868;42.708;23.404;2023-02-02T07:56:11;95280.31;;;2.48;79.37
77702;BME280;66868;42.708;23.404;2023-02-02T07:58:38;95257.75;;;2.50;79.24
77702;BME280;66868;42.708;23.404;2023-02-02T08:01:05;95272.56;;;2.59;78.93
77702;BME280;66868;42.708;23.404;2023-02-02T08:03:32;95254.13;;;2.63;78.76
77702;BME280;66868;42.708;23.404;2023-02-02T08:05:58;95280.34;;;2.79;77.56
77702;BME280;66868;42.708;23.404;2023-02-02T08:08:24;95249.63;;;2.76;76.43
77702;BME280;66868;42.708;23.404;2023-02-02T08:10:51;95254.25;;;2.89;76.44
77702;BME280;66868;42.708;23.404;2023-02-02T08:13:17;95241.53;;;2.97;75.45
77702;BME280;66868;42.708;23.404;2023-02-02T08:15:43;95249.41;;;3.43;77.74
77702;BME280;66868;42.708;23.404;2023-02-02T08:18:08;95227.53;;;3.78;75.92
77702;BME280;66868;42.708;23.404;2023-02-02T08:20:34;95240.25;;;4.24;74.02
77702;BME280;66868;42.708;23.404;2023-02-02T08:22:59;95236.22;;;4.45;71.02
77702;BME280;66868;42.708;23.404;2023-02-02T08:25:25;95233.16;;;4.37;69.53
77702;BME280;66868;42.708;23.404;2023-02-02T08:27:56;95247.31;;;4.38;69.96
77702;BME280;66868;42.708;23.404;2023-02-02T08:30:27;95219.88;;;4.09;70.52
77702;BME280;66868;42.708;23.404;2023-02-02T08:32:52;95223.75;;;4.17;70.50
77702;BME280;66868;42.708;23.404;2023-02-02T08:35:17;95242.97;;;4.17;70.64
77702;BME280;66868;42.708;23.404;2023-02-02T08:37:46;95230.56;;;4.14;71.72
77702;BME280;66868;42.708;23.404;2023-02-02T08:40:13;95211.38;;;4.13;71.74
77702;BME280;66868;42.708;23.404;2023-02-02T08:42:38;95234.13;;;4.33;71.73
77702;BME280;66868;42.708;23.404;2023-02-02T08:45:04;95217.34;;;4.35;71.91
77702;BME280;66868;42.708;23.404;2023-02-02T08:47:29;95213.28;;;4.57;74.16
77702;BME280;66868;42.708;23.404;2023-02-02T08:49:55;95225.22;;;4.99;71.90
77702;BME280;66868;42.708;23.404;2023-02-02T08:52:20;95219.19;;;5.26;70.62
77702;BME280;66868;42.708;23.404;2023-02-02T08:54:45;95225.34;;;5.41;69.21
77702;BME280;66868;42.708;23.404;2023-02-02T08:57:11;95226.28;;;5.38;68.72
77702;BME280;66868;42.708;23.404;2023-02-02T08:59:36;95217.88;;;5.39;67.31
77702;BME280;66868;42.708;23.404;2023-02-02T09:02:02;95193.84;;;5.32;68.32
77702;BME280;66868;42.708;23.404;2023-02-02T09:04:27;95212.13;;;5.59;67.67
77702;BME280;66868;42.708;23.404;2023-02-02T09:06:52;95204.63;;;5.57;65.07
77702;BME280;66868;42.708;23.404;2023-02-02T09:09:18;95228.50;;;5.91;65.03
77702;BME280;66868;42.708;23.404;2023-02-02T09:11:43;95183.38;;;5.88;62.38
77702;BME280;66868;42.708;23.404;2023-02-02T09:14:11;95206.81;;;6.30;60.93
77702;BME280;66868;42.708;23.404;2023-02-02T09:16:36;95222.09;;;6.46;60.78
77702;BME280;66868;42.708;23.404;2023-02-02T09:19:02;95208.16;;;6.59;59.95
77702;BME280;66868;42.708;23.404;2023-02-02T09:21:28;95183.56;;;6.45;58.98
77702;BME280;66868;42.708;23.404;2023-02-02T09:23:54;95208.38;;;6.73;59.53
77702;BME280;66868;42.708;23.404;2023-02-02T09:26:25;95194.81;;;6.57;58.79
77702;BME280;66868;42.708;23.404;2023-02-02T09:28:56;95205.28;;;6.66;60.23
77702;BME280;66868;42.708;23.404;2023-02-02T09:31:23;95214.00;;;6.80;60.60
77702;BME280;66868;42.708;23.404;2023-02-02T09:33:49;95204.41;;;6.88;58.87
77702;BME280;66868;42.708;23.404;2023-02-02T09:36:17;95196.25;;;6.83;59.26
77702;BME280;66868;42.708;23.404;2023-02-02T09:38:44;95202.63;;;6.90;60.25
77702;BME280;66868;42.708;23.404;2023-02-02T09:52:32;95195.00;;;7.49;57.92
77702;BME280;66868;42.708;23.404;2023-02-02T09:57:36;95186.25;;;7.56;58.11
77702;BME280;66868;42.708;23.404;2023-02-02T10:00:05;95179.25;;;7.63;58.40
77702;BME280;66868;42.708;23.404;2023-02-02T10:02:43;95168.59;;;7.75;58.72
77702;BME280;66868;42.708;23.404;2023-02-02T10:05:17;95169.50;;;7.91;57.84
77702;BME280;66868;42.708;23.404;2023-02-02T10:07:48;95163.13;;;7.84;58.68
77702;BME280;66868;42.708;23.404;2023-02-02T10:10:25;95158.69;;;7.89;58.61
77702;BME280;66868;42.708;23.404;2023-02-02T10:13:05;95158.50;;;7.75;59.38
77702;BME280;66868;42.708;23.404;2023-02-02T10:24:13;95148.59;;;8.58;52.96
77702;BME280;66868;42.708;23.404;2023-02-02T10:27:01;95139.47;;;8.88;51.58
77702;BME280;66868;42.708;23.404;2023-02-02T10:32:24;95122.84;;;8.68;51.18
77702;BME280;66868;42.708;23.404;2023-02-02T10:37:57;95136.91;;;9.05;51.44
77702;BME280;66868;42.708;23.404;2023-02-02T10:46:02;95112.94;;;9.12;50.88
77702;BME280;66868;42.708;23.404;2023-02-02T10:48:32;95089.50;;;9.10;51.10
77702;BME280;66868;42.708;23.404;2023-02-02T10:51:05;95102.53;;;9.18;49.50
77702;BME280;66868;42.708;23.404;2023-02-02T10:53:34;95083.84;;;9.37;50.35
77702;BME280;66868;42.708;23.404;2023-02-02T10:58:43;95089.66;;;9.39;49.46
77702;BME280;66868;42.708;23.404;2023-02-02T11:01:10;95112.44;;;9.53;48.14
77702;BME280;66868;42.708;23.404;2023-02-02T11:03:37;95086.75;;;9.60;48.68
77702;BME280;66868;42.708;23.404;2023-02-02T11:06:05;95023.91;;;9.09;48.66
77702;BME280;66868;42.708;23.404;2023-02-02T11:08:51;95072.28;;;9.32;48.50
77702;BME280;66868;42.708;23.404;2023-02-02T11:11:31;95086.06;;;9.43;48.14
77702;BME280;66868;42.708;23.404;2023-02-02T11:16:43;95065.53;;;9.63;48.43
77702;BME280;66868;42.708;23.404;2023-02-02T11:21:44;95079.91;;;9.92;47.62
77702;BME280;66868;42.708;23.404;2023-02-02T11:24:23;95034.22;;;10.09;47.89
77702;BME280;66868;42.708;23.404;2023-02-02T11:26:54;95062.72;;;10.41;47.03
77702;BME280;66868;42.708;23.404;2023-02-02T11:29:30;95038.06;;;10.59;46.13
77702;BME280;66868;42.708;23.404;2023-02-02T11:31:57;95044.19;;;10.83;45.48
77702;BME280;66868;42.708;23.404;2023-02-02T11:34:25;95045.75;;;10.72;44.98
77702;BME280;66868;42.708;23.404;2023-02-02T11:37:14;95034.34;;;10.64;45.32
77702;BME280;66868;42.708;23.404;2023-02-02T11:39:44;95028.38;;;10.80;45.92
77702;BME280;66868;42.708;23.404;2023-02-02T11:42:16;95029.94;;;10.68;45.24
77702;BME280;66868;42.708;23.404;2023-02-02T11:44:46;95032.53;;;10.67;44.81
77702;BME280;66868;42.708;23.404;2023-02-02T11:47:28;95009.69;;;10.68;46.06
77702;BME280;66868;42.708;23.404;2023-02-02T11:49:55;95031.97;;;11.17;44.50
77702;BME280;66868;42.708;23.404;2023-02-02T11:52:24;95010.34;;;11.38;44.30
77702;BME280;66868;42.708;23.404;2023-02-02T11:54:58;95010.81;;;11.57;43.20
77702;BME280;66868;42.708;23.404;2023-02-02T11:57:26;95004.78;;;11.72;42.43
77702;BME280;66868;42.708;23.404;2023-02-02T12:02:33;94998.47;;;11.65;43.75
77702;BME280;66868;42.708;23.404;2023-02-02T12:07:44;94995.09;;;11.13;43.34
77702;BME280;66868;42.708;23.404;2023-02-02T12:10:33;95011.13;;;11.26;43.74
77702;BME280;66868;42.708;23.404;2023-02-02T12:19:09;94999.09;;;10.61;44.01
77702;BME280;66868;42.708;23.404;2023-02-02T12:24:57;94998.09;;;10.07;44.19
77702;BME280;66868;42.708;23.404;2023-02-02T12:27:29;95013.16;;;9.95;45.54
77702;BME280;66868;42.708;23.404;2023-02-02T12:35:30;94993.16;;;9.76;44.49
77702;BME280;66868;42.708;23.404;2023-02-02T12:38:01;94976.41;;;9.45;45.93
77702;BME280;66868;42.708;23.404;2023-02-02T12:51:23;94984.59;;;8.89;47.81
77702;BME280;66868;42.708;23.404;2023-02-02T12:57:04;94985.09;;;8.49;48.30
77702;BME280;66868;42.708;23.404;2023-02-02T13:02:35;94985.91;;;8.65;49.38
77702;BME280;66868;42.708;23.404;2023-02-02T13:08:00;94981.66;;;8.65;49.84
77702;BME280;66868;42.708;23.404;2023-02-02T13:10:38;94981.91;;;8.76;48.57
77702;BME280;66868;42.708;23.404;2023-02-02T13:13:15;94978.75;;;8.73;48.44
77702;BME280;66868;42.708;23.404;2023-02-02T13:15:46;94980.28;;;8.75;48.30
77702;BME280;66868;42.708;23.404;2023-02-02T13:21:04;94989.16;;;8.82;49.33
77702;BME280;66868;42.708;23.404;2023-02-02T13:23:37;94973.78;;;8.71;48.84
77702;BME280;66868;42.708;23.404;2023-02-02T13:26:18;94997.63;;;8.81;48.90
77702;BME280;66868;42.708;23.404;2023-02-02T13:28:54;94994.38;;;8.95;48.78
77702;BME280;66868;42.708;23.404;2023-02-02T13:31:32;94967.03;;;8.88;48.48
77702;BME280;66868;42.708;23.404;2023-02-02T13:37:07;94972.56;;;8.63;51.14
77702;BME280;66868;42.708;23.404;2023-02-02T13:39:43;94968.44;;;9.07;51.02
77702;BME280;66868;42.708;23.404;2023-02-02T13:42:41;94976.94;;;9.94;50.14
77702;BME280;66868;42.708;23.404;2023-02-02T13:45:34;94990.22;;;11.10;46.97
77702;BME280;66868;42.708;23.404;2023-02-02T13:54:30;94994.78;;;11.57;46.38
77702;BME280;66868;42.708;23.404;2023-02-02T13:59:51;94977.81;;;9.35;51.07
77702;BME280;66868;42.708;23.404;2023-02-02T14:02:28;94972.53;;;8.94;52.70
77702;BME280;66868;42.708;23.404;2023-02-02T14:04:58;94963.28;;;8.48;54.51
77702;BME280;66868;42.708;23.404;2023-02-02T14:07:36;94973.38;;;8.48;54.87
77702;BME280;66868;42.708;23.404;2023-02-02T14:10:04;94970.28;;;8.42;55.13
77702;BME280;66868;42.708;23.404;2023-02-02T14:12:32;94977.09;;;8.56;54.94
77702;BME280;66868;42.708;23.404;2023-02-02T14:14:58;94982.25;;;9.16;53.75
77702;BME280;66868;42.708;23.404;2023-02-02T14:19:54;94987.31;;;9.90;51.22
77702;BME280;66868;42.708;23.404;2023-02-02T14:22:46;94997.25;;;9.49;51.81
77702;BME280;66868;42.708;23.404;2023-02-02T14:28:01;94982.00;;;8.75;52.89
77702;BME280;66868;42.708;23.404;2023-02-02T14:30:30;95017.94;;;8.31;56.49
77702;BME280;66868;42.708;23.404;2023-02-02T14:41:50;95060.31;;;6.65;71.98
77702;BME280;66868;42.708;23.404;2023-02-02T14:44:30;95052.00;;;6.45;72.98
77702;BME280;66868;42.708;23.404;2023-02-02T14:46:58;95040.28;;;6.25;74.36
77702;BME280;66868;42.708;23.404;2023-02-02T14:49:25;95077.03;;;6.09;74.82
77702;BME280;66868;42.708;23.404;2023-02-02T14:51:55;95097.31;;;5.62;78.29
77702;BME280;66868;42.708;23.404;2023-02-02T14:54:31;95100.97;;;5.33;79.73
77702;BME280;66868;42.708;23.404;2023-02-02T14:57:05;95077.38;;;4.94;81.66
77702;BME280;66868;42.708;23.404;2023-02-02T14:59:44;95148.16;;;4.79;82.90
77702;BME280;66868;42.708;23.404;2023-02-02T15:02:31;95135.22;;;4.18;84.98
77702;BME280;66868;42.708;23.404;2023-02-02T15:08:05;95141.84;;;3.94;87.14
77702;BME280;66868;42.708;23.404;2023-02-02T15:13:19;95160.22;;;3.95;86.51
77702;BME280;66868;42.708;23.404;2023-02-02T15:15:48;95161.75;;;3.99;86.32
77702;BME280;66868;42.708;23.404;2023-02-02T15:18:24;95177.69;;;3.96;86.59
77702;BME280;66868;42.708;23.404;2023-02-02T15:20:55;95202.97;;;3.89;85.26
77702;BME280;66868;42.708;23.404;2023-02-02T15:28:42;95195.53;;;3.87;86.09
77702;BME280;66868;42.708;23.404;2023-02-02T15:33:37;95235.84;;;3.78;85.16